Time;durP1;ratioP1;P1;durP2;ratioP2;P2;SDS_P1;SDS_P2;PMS_P1;PMS_P2;Temp;Humidity;BMP_temperature;BMP_pressure;BME280_temperature;BME280_humidity;BME280_pressure;Samples;Min_cycle;Max_cycle;Signal;HPM_P1;HPM_P2
2022/04/28 00:01:48;;;;;;;;;;;;;;;12.84;66.38;101081.91;4960920;28;20347;-88
2022/04/28 00:04:14;;;;;;;;;;;;;;;12.84;66.85;101079.22;4960164;28;19918;-88
2022/04/28 00:06:39;;;;;;;;;;;;;;;12.80;66.68;101077.84;4963056;28;20225;-87
2022/04/28 00:09:05;;;;;;;;;;;;;;;12.79;66.66;101075.34;4961106;28;19918;-87
2022/04/28 00:11:31;;;;;;;;;;;;;;;12.75;66.80;101074.81;4949272;28;19925;-88
2022/04/28 00:13:58;;;;;;;;;;;;;;;12.66;67.26;101075.78;4954836;28;19918;-88
2022/04/28 00:16:24;;;;;;;;;;;;;;;12.68;67.27;101066.53;4963278;28;19985;-88
2022/04/28 00:18:51;;;;;;;;;;;;;;;12.61;67.46;101067.34;4959487;28;19949;-87
2022/04/28 00:21:19;;;;;;;;;;;;;;;12.62;67.80;101074.44;4964485;28;19925;-88
2022/04/28 00:23:44;;;;;;;;;;;;;;;12.53;67.91;101064.66;4957403;28;19914;-86
2022/04/28 00:26:10;;;;;;;;;;;;;;;12.57;68.05;101066.84;4960234;28;19929;-86
2022/04/28 00:28:35;;;;;;;;;;;;;;;12.45;68.57;101062.75;4951000;28;19918;-87
2022/04/28 00:31:00;;;;;;;;;;;;;;;12.38;68.64;101064.41;4962367;28;19915;-83
2022/04/28 00:33:27;;;;;;;;;;;;;;;12.43;68.62;101076.41;4951248;28;19929;-86
2022/04/28 00:35:54;;;;;;;;;;;;;;;12.22;69.22;101066.03;4944912;29;20326;-85
2022/04/28 00:38:20;;;;;;;;;;;;;;;12.15;69.32;101062.31;4942959;28;19934;-85
2022/04/28 00:40:45;;;;;;;;;;;;;;;12.23;68.90;101059.63;4945314;28;19945;-85
2022/04/28 00:43:19;;;;;;;;;;;;;;;12.33;68.54;101059.50;4951940;28;19918;-85
2022/04/28 00:45:45;;;;;;;;;;;;;;;12.37;68.51;101057.34;4941500;29;19918;-85
2022/04/28 00:50:55;;;;;;;;;;;;;;;12.37;68.12;101054.63;4941467;29;19929;-85
2022/04/28 00:53:20;;;;;;;;;;;;;;;12.32;68.20;101054.28;4933814;29;20247;-89
2022/04/28 00:55:48;;;;;;;;;;;;;;;12.30;68.27;101059.84;4945359;29;20030;-86
2022/04/28 00:58:13;;;;;;;;;;;;;;;12.21;68.67;101058.09;4938809;29;20057;-83
2022/04/28 01:00:41;;;;;;;;;;;;;;;12.29;68.63;101052.75;4944011;28;19961;-83
2022/04/28 01:03:07;;;;;;;;;;;;;;;12.34;68.27;101050.41;4934083;29;19990;-86
2022/04/28 01:05:32;;;;;;;;;;;;;;;12.23;68.55;101053.41;4944567;28;20316;-85
2022/04/28 01:08:00;;;;;;;;;;;;;;;12.22;68.71;101040.91;4933989;29;20450;-86
2022/04/28 01:10:25;;;;;;;;;;;;;;;12.30;68.47;101048.22;4935335;28;20268;-86
2022/04/28 01:12:51;;;;;;;;;;;;;;;12.30;68.45;101045.53;4935611;29;19995;-85
2022/04/28 01:15:16;;;;;;;;;;;;;;;12.27;68.43;101046.69;4931794;29;19915;-84
2022/04/28 01:17:41;;;;;;;;;;;;;;;12.24;68.52;101044.28;4949867;28;19918;-86
2022/04/28 01:20:07;;;;;;;;;;;;;;;12.21;68.80;101050.03;4943601;28;20264;-85
2022/04/28 01:22:32;;;;;;;;;;;;;;;12.17;68.85;101045.94;4931748;29;20414;-87
2022/04/28 01:25:03;;;;;;;;;;;;;;;12.20;68.76;101051.03;4927321;29;19927;-84
2022/04/28 01:27:29;;;;;;;;;;;;;;;12.16;68.91;101042.41;4949330;29;20069;-85
2022/04/28 01:29:54;;;;;;;;;;;;;;;12.15;69.01;101047.97;4946380;29;20073;-85
2022/04/28 01:32:19;;;;;;;;;;;;;;;12.17;68.99;101052.19;4936547;29;19921;-86
2022/04/28 01:34:45;;;;;;;;;;;;;;;12.15;69.08;101046.13;4934061;29;20016;-86
2022/04/28 01:37:10;;;;;;;;;;;;;;;12.15;69.01;101047.97;4951084;29;20072;-86
2022/04/28 01:39:35;;;;;;;;;;;;;;;12.14;68.96;101048.97;4929354;29;19925;-88
2022/04/28 01:42:05;;;;;;;;;;;;;;;12.15;68.91;101045.28;4948675;29;19922;-85
2022/04/28 01:44:32;;;;;;;;;;;;;;;12.12;69.12;101051.00;4947378;28;19922;-86
2022/04/28 01:46:58;;;;;;;;;;;;;;;12.09;69.40;101046.78;4928046;29;19915;-85
2022/04/28 01:49:23;;;;;;;;;;;;;;;12.14;69.69;101044.44;4947869;29;20017;-85
2022/04/28 01:57:17;;;;;;;;;;;;;;;12.01;69.96;101044.03;4945363;29;19972;-86
2022/04/28 01:59:44;;;;;;;;;;;;;;;11.84;70.00;101043.06;4945174;28;19979;-86
2022/04/28 02:02:10;;;;;;;;;;;;;;;11.94;69.66;101051.06;4929375;29;20305;-87
2022/04/28 02:04:38;;;;;;;;;;;;;;;12.01;69.24;101050.28;4944066;28;19961;-86
2022/04/28 02:07:11;;;;;;;;;;;;;;;11.90;69.52;101044.31;4940977;28;19934;-86
2022/04/28 02:09:36;;;;;;;;;;;;;;;11.87;69.74;101042.81;4931035;29;19919;-86
2022/04/28 02:12:04;;;;;;;;;;;;;;;11.89;69.56;101043.47;4944334;29;20451;-86
2022/04/28 02:14:29;;;;;;;;;;;;;;;11.85;69.74;101050.16;4945538;28;19918;-86
2022/04/28 02:16:54;;;;;;;;;;;;;;;11.94;69.81;101045.66;4935498;29;19927;-85
2022/04/28 02:19:20;;;;;;;;;;;;;;;11.93;69.93;101042.13;4944334;28;19923;-86
2022/04/28 02:21:45;;;;;;;;;;;;;;;11.86;70.26;101046.44;4928552;29;20374;-85
2022/04/28 02:24:10;;;;;;;;;;;;;;;11.87;70.12;101047.28;4935502;29;19930;-85
2022/04/28 02:26:36;;;;;;;;;;;;;;;11.88;69.89;101049.88;4946318;29;20359;-85
2022/04/28 02:29:01;;;;;;;;;;;;;;;11.87;70.18;101048.19;4952742;28;19954;-86
2022/04/28 02:31:26;;;;;;;;;;;;;;;11.92;70.09;101050.41;4940553;28;19969;-86
2022/04/28 02:33:52;;;;;;;;;;;;;;;11.96;69.85;101036.44;4934648;29;20017;-87
2022/04/28 02:36:17;;;;;;;;;;;;;;;11.97;70.11;101048.91;4947846;28;19922;-86
2022/04/28 02:38:42;;;;;;;;;;;;;;;11.89;70.18;101054.22;4956344;28;20125;-85
2022/04/28 02:41:08;;;;;;;;;;;;;;;11.91;69.99;101052.22;4949253;28;19925;-86
2022/04/28 02:43:34;;;;;;;;;;;;;;;11.90;69.72;101047.03;4935932;29;20020;-85
2022/04/28 02:46:02;;;;;;;;;;;;;;;11.93;69.85;101042.13;4949384;28;20478;-87
2022/04/28 02:48:27;;;;;;;;;;;;;;;11.89;70.01;101040.75;4952620;28;19919;-87
2022/04/28 02:50:53;;;;;;;;;;;;;;;11.86;70.21;101049.13;4947473;28;20322;-85
2022/04/28 02:53:18;;;;;;;;;;;;;;;11.88;70.04;101049.88;4955003;28;19915;-85
2022/04/28 02:55:44;;;;;;;;;;;;;;;11.85;70.11;101055.53;4947153;28;20001;-86
2022/04/28 02:58:10;;;;;;;;;;;;;;;11.88;70.03;101055.25;4933882;29;20006;-85
2022/04/28 03:00:36;;;;;;;;;;;;;;;11.82;70.20;101055.84;4938764;28;19918;-86
2022/04/28 03:03:02;;;;;;;;;;;;;;;11.86;69.89;101062.63;4953508;28;19918;-87
2022/04/28 03:05:27;;;;;;;;;;;;;;;11.75;70.33;101057.50;4926159;29;19926;-86
2022/04/28 03:10:53;;;;;;;;;;;;;;;11.61;70.75;101062.47;4947948;28;19926;-85
2022/04/28 03:13:22;;;;;;;;;;;;;;;11.71;70.40;101064.22;4954764;28;19914;-85
2022/04/28 03:15:47;;;;;;;;;;;;;;;11.74;70.33;101058.50;4943379;29;20108;-86
2022/04/28 03:18:13;;;;;;;;;;;;;;;11.79;70.20;101061.56;4953060;28;20347;-86
2022/04/28 03:20:38;;;;;;;;;;;;;;;11.79;70.13;101061.56;4943343;28;19919;-84
2022/04/28 03:23:04;;;;;;;;;;;;;;;11.70;70.44;101054.44;4956225;28;19919;-85
2022/04/28 03:25:29;;;;;;;;;;;;;;;11.70;70.39;101054.44;4944020;28;20311;-85
2022/04/28 03:27:56;;;;;;;;;;;;;;;11.61;70.73;101058.91;4937361;29;19914;-84
2022/04/28 03:30:22;;;;;;;;;;;;;;;11.74;70.43;101066.59;4934733;29;20283;-87
2022/04/28 03:32:47;;;;;;;;;;;;;;;11.83;70.14;101073.72;4937478;28;19915;-86
2022/04/28 03:35:15;;;;;;;;;;;;;;;11.84;70.02;101070.00;4927182;29;19919;-86
2022/04/28 03:37:49;;;;;;;;;;;;;;;11.86;69.59;101070.69;4934130;29;19918;-85
2022/04/28 03:40:14;;;;;;;;;;;;;;;11.99;68.93;101071.16;4949623;28;20367;-87
2022/04/28 03:42:40;;;;;;;;;;;;;;;11.99;68.75;101067.63;4936452;29;20005;-84
2022/04/28 03:45:05;;;;;;;;;;;;;;;12.01;68.75;101071.84;4942504;29;19918;-86
2022/04/28 03:47:32;;;;;;;;;;;;;;;12.12;68.30;101069.84;4953681;28;19977;-86
2022/04/28 03:49:57;;;;;;;;;;;;;;;12.20;68.05;101084.22;4928136;29;19918;-86
2022/04/28 03:52:22;;;;;;;;;;;;;;;12.15;68.80;101083.00;4950801;28;19933;-87
2022/04/28 03:54:48;;;;;;;;;;;;;;;12.31;68.20;101087.63;4941133;28;19926;-84
2022/04/28 03:57:16;;;;;;;;;;;;;;;12.33;67.97;101086.47;4935956;29;19929;-87
2022/04/28 03:59:42;;;;;;;;;;;;;;;12.45;67.65;101092.41;4947944;29;19958;-85
2022/04/28 04:02:07;;;;;;;;;;;;;;;12.51;67.07;101099.84;4941894;28;20343;-86
2022/04/28 04:04:33;;;;;;;;;;;;;;;12.53;67.11;101086.22;4947452;28;19997;-86
2022/04/28 04:06:58;;;;;;;;;;;;;;;12.57;66.80;101087.56;4935005;29;19926;-87
2022/04/28 04:09:24;;;;;;;;;;;;;;;12.74;66.41;101093.88;4935632;28;19929;-85
2022/04/28 04:11:51;;;;;;;;;;;;;;;12.77;65.97;101094.38;4944483;28;19915;-89
2022/04/28 04:14:20;;;;;;;;;;;;;;;12.96;65.79;101092.38;4948723;29;19919;-87
2022/04/28 04:16:48;;;;;;;;;;;;;;;13.05;65.22;101088.69;4944016;28;19918;-87
2022/04/28 04:19:15;;;;;;;;;;;;;;;13.12;65.24;101076.22;4951067;28;19922;-88
2022/04/28 04:21:40;;;;;;;;;;;;;;;13.14;65.33;101085.00;4947410;28;19914;-86
2022/04/28 04:24:06;;;;;;;;;;;;;;;13.13;65.41;101082.44;4933904;28;19918;-88
2022/04/28 04:26:34;;;;;;;;;;;;;;;13.21;65.61;101086.00;4932560;29;20295;-90
2022/04/28 04:29:00;;;;;;;;;;;;;;;13.26;65.94;101085.50;4948917;28;20005;-87
2022/04/28 04:34:09;;;;;;;;;;;;;;;13.64;64.77;101086.69;4939735;28;20399;-86
2022/04/28 04:36:36;;;;;;;;;;;;;;;13.72;64.96;101089.41;4949104;29;19965;-85
2022/04/28 04:39:02;;;;;;;;;;;;;;;13.91;64.47;101080.06;4930048;29;19919;-85
2022/04/28 04:41:27;;;;;;;;;;;;;;;13.97;64.79;101081.22;4927376;28;20343;-88
2022/04/28 04:43:53;;;;;;;;;;;;;;;14.04;64.33;101090.34;4914580;29;19947;-85
2022/04/28 04:46:19;;;;;;;;;;;;;;;14.30;63.91;101081.13;4945125;28;19919;-86
2022/04/28 04:48:44;;;;;;;;;;;;;;;15.60;61.30;101078.63;4948624;28;20254;-85
2022/04/28 04:51:13;;;;;;;;;;;;;;;17.94;53.70;101083.03;4926178;29;20384;-88
2022/04/28 04:53:40;;;;;;;;;;;;;;;19.71;48.23;101078.56;4935074;29;19914;-89
2022/04/28 04:56:05;;;;;;;;;;;;;;;21.51;43.52;101084.13;4932035;28;19928;-85
2022/04/28 04:58:31;;;;;;;;;;;;;;;22.75;40.41;101071.22;4946988;28;20009;-83
2022/04/28 05:00:56;;;;;;;;;;;;;;;24.22;37.61;101083.41;4928125;29;19914;-88
2022/04/28 05:03:21;;;;;;;;;;;;;;;24.99;35.35;101082.22;4943049;28;19933;-90
2022/04/28 05:05:47;;;;;;;;;;;;;;;25.77;34.10;101093.47;4933418;29;19918;-86
2022/04/28 05:08:16;;;;;;;;;;;;;;;26.66;32.46;101092.53;4936321;28;20587;-85
2022/04/28 05:10:43;;;;;;;;;;;;;;;26.48;32.09;101092.84;4946209;28;19924;-86
2022/04/28 05:13:11;;;;;;;;;;;;;;;26.11;32.16;101099.81;4932587;29;19927;-85
2022/04/28 05:15:37;;;;;;;;;;;;;;;27.43;30.40;101098.03;4932718;29;19922;-88
2022/04/28 05:18:05;;;;;;;;;;;;;;;26.52;31.04;101105.03;4936219;28;19927;-87
2022/04/28 05:20:32;;;;;;;;;;;;;;;26.78;31.20;101099.84;4932341;29;19930;-90
2022/04/28 05:23:01;;;;;;;;;;;;;;;27.30;30.12;101091.88;4926399;28;20367;-91
2022/04/28 05:25:29;;;;;;;;;;;;;;;27.72;29.10;101091.09;4952417;28;19969;-92
2022/04/28 05:27:54;;;;;;;;;;;;;;;28.31;28.37;101101.16;4937645;29;20014;-94
2022/04/28 05:30:20;;;;;;;;;;;;;;;28.75;27.88;101098.06;4943013;28;19950;-92
2022/04/28 05:32:48;;;;;;;;;;;;;;;29.53;27.03;101102.63;4946580;28;20213;-95
2022/04/28 05:35:14;;;;;;;;;;;;;;;30.84;25.52;101104.53;4935270;28;20018;-91
2022/04/28 05:37:40;;;;;;;;;;;;;;;31.22;24.73;101109.56;4948488;28;19962;-93
2022/04/28 05:40:05;;;;;;;;;;;;;;;30.83;24.18;101116.72;4932693;29;20088;-91
2022/04/28 05:48:01;;;;;;;;;;;;;;;31.77;23.86;101107.44;4921934;29;19981;-88
2022/04/28 05:50:26;;;;;;;;;;;;;;;31.86;24.31;101107.66;4929852;29;20016;-90
2022/04/28 05:52:52;;;;;;;;;;;;;;;32.36;23.13;101106.28;4953564;28;19976;-90
2022/04/28 05:55:17;;;;;;;;;;;;;;;32.13;22.87;101113.50;4947747;28;19925;-90
2022/04/28 05:57:43;;;;;;;;;;;;;;;31.92;23.04;101106.50;4940237;29;19914;-89
2022/04/28 06:00:08;;;;;;;;;;;;;;;32.07;22.88;101106.34;4945749;29;19940;-89
2022/04/28 06:02:35;;;;;;;;;;;;;;;32.07;23.35;101106.34;4940968;29;19922;-90
2022/04/28 06:05:04;;;;;;;;;;;;;;;32.56;22.41;101105.22;4941924;29;19922;-89
2022/04/28 06:07:29;;;;;;;;;;;;;;;32.53;22.19;101105.81;4951123;28;19937;-90
2022/04/28 06:09:54;;;;;;;;;;;;;;;33.29;21.53;101108.66;4949476;28;20009;-91
2022/04/28 06:12:20;;;;;;;;;;;;;;;33.39;20.77;101107.69;4941567;29;19921;-90
2022/04/28 06:14:49;;;;;;;;;;;;;;;33.13;21.28;101108.09;4941447;29;20009;-89
2022/04/28 06:17:14;;;;;;;;;;;;;;;32.51;21.88;101110.03;4944337;29;19966;-89
2022/04/28 06:19:57;;;;;;;;;;;;;;;32.21;21.09;101114.81;4952388;29;19966;-89
2022/04/28 06:22:22;;;;;;;;;;;;;;;33.17;20.64;101109.13;4945529;29;20009;-88
2022/04/28 06:24:54;;;;;;;;;;;;;;;33.50;19.65;101111.09;4942137;29;20001;-88
2022/04/28 06:27:19;;;;;;;;;;;;;;;32.12;20.63;101109.09;4942246;29;19915;-90
2022/04/28 06:29:45;;;;;;;;;;;;;;;31.35;21.26;101103.34;4941942;29;19914;-87
2022/04/28 06:32:11;;;;;;;;;;;;;;;32.29;20.36;101110.56;4948464;29;19941;-89
2022/04/28 06:34:36;;;;;;;;;;;;;;;30.34;21.98;101117.47;4948079;28;20365;-89
2022/04/28 06:37:01;;;;;;;;;;;;;;;30.39;22.09;101109.16;4938066;29;20443;-89
2022/04/28 06:39:27;;;;;;;;;;;;;;;31.24;21.53;101118.44;4937519;29;20383;-89
2022/04/28 06:41:52;;;;;;;;;;;;;;;31.45;21.06;101124.72;4937406;29;20229;-87
2022/04/28 06:44:18;;;;;;;;;;;;;;;30.95;21.55;101126.66;4936999;28;20692;-89
2022/04/28 06:46:44;;;;;;;;;;;;;;;31.88;20.06;101127.66;4942703;28;19918;-86
2022/04/28 06:49:09;;;;;;;;;;;;;;;32.39;20.04;101135.47;4949571;28;20020;-85
2022/04/28 06:51:38;;;;;;;;;;;;;;;31.13;21.13;101137.94;4944262;29;19985;-91
2022/04/28 06:54:04;;;;;;;;;;;;;;;31.94;20.30;101134.81;4942636;29;19942;-89
2022/04/28 06:56:29;;;;;;;;;;;;;;;32.83;19.25;101130.75;4949732;28;19969;-93
2022/04/28 06:58:55;;;;;;;;;;;;;;;32.91;18.54;101133.72;4925079;28;20360;-86
2022/04/28 07:01:23;;;;;;;;;;;;;;;32.56;18.71;101133.06;4949760;28;19919;-92
2022/04/28 07:03:49;;;;;;;;;;;;;;;31.28;19.91;101130.63;4934940;28;19933;-90
2022/04/28 07:06:14;;;;;;;;;;;;;;;32.64;19.18;101127.94;4934862;29;19923;-87
2022/04/28 07:08:43;;;;;;;;;;;;;;;33.79;17.67;101128.47;4947302;28;20258;-87
2022/04/28 07:11:09;;;;;;;;;;;;;;;33.69;17.25;101137.00;4941882;28;19934;-85
2022/04/28 07:13:38;;;;;;;;;;;;;;;32.52;17.92;101134.81;4950538;28;19918;-85
2022/04/28 07:16:06;;;;;;;;;;;;;;;31.96;18.85;101140.97;4949743;28;20034;-89
2022/04/28 07:18:31;;;;;;;;;;;;;;;31.19;19.71;101144.31;4934005;29;20017;-85
2022/04/28 07:20:58;;;;;;;;;;;;;;;30.81;20.07;101149.50;4939322;28;20470;-86
2022/04/28 07:23:24;;;;;;;;;;;;;;;30.61;20.49;101150.41;4933602;28;19985;-85
2022/04/28 07:25:53;;;;;;;;;;;;;;;29.82;21.76;101151.94;4946837;28;19923;-85
2022/04/28 07:28:23;;;;;;;;;;;;;;;29.66;21.48;101151.06;4933618;29;20006;-86
2022/04/28 07:30:48;;;;;;;;;;;;;;;30.30;21.66;101149.69;4933090;29;20284;-85
2022/04/28 07:33:14;;;;;;;;;;;;;;;28.73;22.21;101150.06;4953505;28;19925;-92
2022/04/28 07:50:46;;;;;;;;;;;;;;;29.46;22.32;101172.13;5033862;23;19937;-90
2022/04/28 07:53:32;;;;;;;;;;;;;;;28.54;23.75;101169.06;5076628;23;19922;-94
2022/04/28 07:56:25;;;;;;;;;;;;;;;27.09;24.60;101173.59;4965950;28;19925;-93
2022/04/28 07:58:53;;;;;;;;;;;;;;;27.75;24.34;101165.16;5099715;23;19949;-93
2022/04/28 08:01:52;;;;;;;;;;;;;;;27.94;23.58;101165.59;5047138;23;19940;-94
2022/04/28 08:04:25;;;;;;;;;;;;;;;27.95;23.64;101167.25;4970086;28;20009;-94
2022/04/28 08:06:59;;;;;;;;;;;;;;;27.91;24.37;101166.16;4974106;28;19914;-94
2022/04/28 08:09:27;;;;;;;;;;;;;;;27.07;24.63;101167.50;4958773;28;19918;-90
2022/04/28 08:11:55;;;;;;;;;;;;;;;26.80;25.05;101177.66;4951666;29;19923;-89
2022/04/28 08:14:25;;;;;;;;;;;;;;;26.58;24.85;101181.25;4951517;29;19929;-94
2022/04/28 08:16:52;;;;;;;;;;;;;;;26.78;24.66;101185.34;4968016;28;19925;-89
2022/04/28 08:19:28;;;;;;;;;;;;;;;26.41;24.84;101180.41;4974164;28;19938;-93
2022/04/28 08:22:03;;;;;;;;;;;;;;;27.37;23.84;101180.00;4969546;28;19945;-93
2022/04/28 08:24:45;;;;;;;;;;;;;;;27.00;23.79;101188.13;4971612;28;19910;-94
2022/04/28 08:27:11;;;;;;;;;;;;;;;27.87;22.83;101186.28;4933228;29;19929;-89
2022/04/28 08:29:39;;;;;;;;;;;;;;;27.55;23.09;101196.16;4942819;28;19945;-90
2022/04/28 08:32:05;;;;;;;;;;;;;;;28.03;22.76;101190.00;4950544;29;19929;-91
2022/04/28 08:34:31;;;;;;;;;;;;;;;27.40;23.30;101187.75;4953004;29;19977;-88
2022/04/28 08:37:24;;;;;;;;;;;;;;;27.31;23.77;101201.19;4955446;28;20052;-89
2022/04/28 08:39:51;;;;;;;;;;;;;;;28.07;23.19;101186.41;4959822;28;20410;-88
2022/04/28 08:42:31;;;;;;;;;;;;;;;28.89;22.12;101186.06;4956652;29;20073;-89
2022/04/28 08:48:09;;;;;;;;;;;;;;;31.13;19.71;101206.53;4939419;29;19926;-89
2022/04/28 08:50:34;;;;;;;;;;;;;;;31.51;18.79;101202.16;4957918;28;19956;-89
2022/04/28 08:53:00;;;;;;;;;;;;;;;32.74;17.98;101208.56;4954495;28;19915;-87
2022/04/28 08:55:26;;;;;;;;;;;;;;;31.17;19.34;101215.13;4937127;29;20350;-91
2022/04/28 08:57:52;;;;;;;;;;;;;;;32.54;17.97;101210.44;4938501;28;19921;-88
2022/04/28 09:00:17;;;;;;;;;;;;;;;32.38;18.09;101208.91;4927788;29;19915;-90
2022/04/28 09:02:46;;;;;;;;;;;;;;;33.28;17.45;101207.31;4951072;29;19918;-86
2022/04/28 09:05:17;;;;;;;;;;;;;;;31.99;18.38;101211.84;4960636;28;19914;-89
2022/04/28 09:07:58;;;;;;;;;;;;;;;32.47;18.08;101215.50;4955843;28;19921;-90
2022/04/28 09:14:30;;;;;;;;;;;;;;;31.81;19.00;101222.50;4960727;29;19933;-87
2022/04/28 09:16:32;;;;;;;;;;;;;;;33.28;17.58;101214.84;4936656;28;19918;-89
2022/04/28 09:18:59;;;;;;;;;;;;;;;34.50;16.29;101214.78;4928314;29;20332;-91
2022/04/28 09:21:27;;;;;;;;;;;;;;;33.82;17.18;101222.66;4938273;29;19919;-89
2022/04/28 09:23:56;;;;;;;;;;;;;;;34.60;16.09;101220.16;4952361;28;19961;-91
2022/04/28 09:26:38;;;;;;;;;;;;;;;34.43;16.44;101223.56;4936714;29;19915;-92
2022/04/28 09:29:24;;;;;;;;;;;;;;;34.96;15.81;101219.44;4936096;29;20006;-90
2022/04/28 09:32:17;;;;;;;;;;;;;;;35.27;15.37;101218.78;4929085;29;19918;-89
2022/04/28 09:34:49;;;;;;;;;;;;;;;33.26;17.20;101215.13;4944969;29;20048;-90
2022/04/28 09:37:27;;;;;;;;;;;;;;;34.83;16.24;101223.91;4944722;29;20005;-88
2022/04/28 09:43:15;;;;;;;;;;;;;;;34.30;16.12;101229.09;4957726;29;19925;-90
2022/04/28 09:45:43;;;;;;;;;;;;;;;32.20;18.54;101226.38;4957392;28;19946;-89
2022/04/28 09:48:12;;;;;;;;;;;;;;;32.45;18.23;101226.13;4926386;29;20233;-93
2022/04/28 09:50:41;;;;;;;;;;;;;;;33.24;17.89;101222.97;4934294;29;19919;-90
2022/04/28 09:53:08;;;;;;;;;;;;;;;33.86;16.91;101220.09;4939314;28;20676;-89
2022/04/28 09:55:37;;;;;;;;;;;;;;;35.51;15.45;101224.91;4954182;28;19954;-88
2022/04/28 09:58:09;;;;;;;;;;;;;;;35.74;15.42;101219.38;4954815;28;19976;-92
2022/04/28 10:00:35;;;;;;;;;;;;;;;34.56;16.39;101224.72;4928933;29;20025;-90
2022/04/28 10:03:04;;;;;;;;;;;;;;;34.33;16.31;101222.94;4943510;29;19930;-90
2022/04/28 10:05:30;;;;;;;;;;;;;;;35.80;15.30;101220.91;4939616;28;20379;-90
2022/04/28 10:07:59;;;;;;;;;;;;;;;37.36;14.13;101219.94;4932300;29;19923;-90
2022/04/28 10:10:50;;;;;;;;;;;;;;;36.57;15.04;101216.06;4940099;29;19957;-91
2022/04/28 10:13:23;;;;;;;;;;;;;;;35.72;15.25;101224.47;4946925;28;19966;-94
2022/04/28 10:15:55;;;;;;;;;;;;;;;36.84;14.71;101217.84;4954721;28;19914;-88
2022/04/28 10:18:21;;;;;;;;;;;;;;;34.93;15.62;101222.84;4931875;29;20304;-90
2022/04/28 10:20:55;;;;;;;;;;;;;;;34.83;16.21;101223.91;4913029;29;19922;-90
2022/04/28 10:32:22;;;;;;;;;;;;;;;34.15;16.82;101219.06;4966075;28;20137;-91
2022/04/28 10:34:50;;;;;;;;;;;;;;;34.45;16.54;101220.47;4958532;28;19965;-91
2022/04/28 10:37:26;;;;;;;;;;;;;;;35.04;16.32;101210.31;4955911;28;19910;-92
2022/04/28 10:46:01;;;;;;;;;;;;;;;32.57;17.95;101223.78;4947691;28;19958;-94
2022/04/28 10:51:59;;;;;;;;;;;;;;;;;;;;;
2022/04/28 10:54:46;;;;;;;;;;;;;;;35.22;16.29;101221.72;4911494;29;19957;-88
2022/04/28 10:57:32;;;;;;;;;;;;;;;35.62;15.51;101210.75;4940391;29;20391;-91
2022/04/28 11:00:29;;;;;;;;;;;;;;;35.16;16.10;101217.38;4899427;29;19925;-91
2022/04/28 11:03:15;;;;;;;;;;;;;;;35.89;15.31;101220.94;4902660;29;20065;-92
2022/04/28 11:05:56;;;;;;;;;;;;;;;35.55;15.43;101224.31;4924290;29;19922;-92
2022/04/28 11:08:25;;;;;;;;;;;;;;;35.56;15.73;101215.59;4910731;29;20379;-92
2022/04/28 11:20:25;;;;;;;;;;;;;;;34.91;16.05;101213.13;4919869;29;19915;-91
2022/04/28 11:22:54;;;;;;;;;;;;;;;32.69;18.13;101219.75;4910556;29;20022;-83
2022/04/28 11:25:22;;;;;;;;;;;;;;;30.00;20.74;101223.44;4893994;29;19941;-83
2022/04/28 11:27:50;;;;;;;;;;;;;;;30.12;21.04;101214.00;4877110;29;19920;-88
2022/04/28 11:30:27;;;;;;;;;;;;;;;30.46;20.36;101217.03;4911456;29;19919;-86
2022/04/28 11:32:57;;;;;;;;;;;;;;;29.94;21.37;101221.78;4900795;29;19927;-85
2022/04/28 11:35:31;;;;;;;;;;;;;;;28.53;22.69;101228.22;4911467;29;20016;-85
2022/04/28 11:38:01;;;;;;;;;;;;;;;28.27;23.43;101224.44;4908723;29;19923;-87
2022/04/28 11:40:26;;;;;;;;;;;;;;;28.80;22.96;101219.81;4896663;29;20426;-87
2022/04/28 11:43:02;;;;;;;;;;;;;;;28.79;22.54;101215.34;4895750;29;20380;-86
2022/04/28 11:45:29;;;;;;;;;;;;;;;28.09;23.47;101216.56;4896448;29;20533;-84
2022/04/28 11:47:56;;;;;;;;;;;;;;;27.73;23.77;101216.22;4910379;29;20018;-87
2022/04/28 11:50:23;;;;;;;;;;;;;;;26.17;26.04;101213.69;4900336;29;19974;-87
2022/04/28 11:52:59;;;;;;;;;;;;;;;26.52;25.61;101216.13;4913421;29;20018;-88
2022/04/28 11:55:25;;;;;;;;;;;;;;;25.93;25.88;101213.03;4895126;29;19927;-85
2022/04/28 11:57:50;;;;;;;;;;;;;;;24.76;27.23;101220.63;4910891;29;19919;-82
2022/04/28 12:00:19;;;;;;;;;;;;;;;23.98;28.16;101213.59;4914423;29;19919;-83
2022/04/28 12:02:45;;;;;;;;;;;;;;;23.11;29.69;101219.47;4899546;29;19930;-84
2022/04/28 12:05:16;;;;;;;;;;;;;;;23.30;29.61;101223.84;4914422;29;20375;-81
2022/04/28 12:07:43;;;;;;;;;;;;;;;22.88;30.79;101220.16;4914870;29;20411;-84
2022/04/28 12:15:59;;;;;;;;;;;;;;;23.33;29.94;101212.41;4892509;29;20227;-84
2022/04/28 12:21:22;;;;;;;;;;;;;;;22.65;30.99;101204.38;4937492;29;20055;-83
2022/04/28 12:23:50;;;;;;;;;;;;;;;23.06;30.71;101209.22;4934281;29;20018;-83
2022/04/28 12:26:15;;;;;;;;;;;;;;;23.00;30.28;101206.53;4947896;28;19918;-83
2022/04/28 12:29:01;;;;;;;;;;;;;;;22.82;30.54;101204.59;4922463;29;20056;-81
2022/04/28 12:31:29;;;;;;;;;;;;;;;22.96;30.37;101204.22;4953334;28;19918;-83
2022/04/28 12:33:55;;;;;;;;;;;;;;;22.66;31.12;101197.81;4934507;29;19973;-84
2022/04/28 12:36:21;;;;;;;;;;;;;;;21.98;32.11;101199.50;4942275;28;19930;-82
2022/04/28 12:38:49;;;;;;;;;;;;;;;21.67;32.35;101192.19;4934508;29;19918;-82
2022/04/28 12:41:27;;;;;;;;;;;;;;;21.56;32.38;101201.94;4935802;29;20031;-83
2022/04/28 12:43:58;;;;;;;;;;;;;;;21.53;32.60;101196.91;4931231;29;19923;-82
2022/04/28 12:46:36;;;;;;;;;;;;;;;21.43;32.92;101194.66;4932739;29;19919;-84
2022/04/28 12:49:23;;;;;;;;;;;;;;;21.33;33.78;101199.75;4923109;29;19918;-87
2022/04/28 12:51:52;;;;;;;;;;;;;;;21.54;33.03;101201.34;4950680;29;19915;-81
2022/04/28 12:54:22;;;;;;;;;;;;;;;21.48;33.14;101200.31;4944886;28;19959;-84
2022/04/28 12:56:59;;;;;;;;;;;;;;;21.67;32.64;101192.19;4942186;28;19914;-83
2022/04/28 12:59:30;;;;;;;;;;;;;;;21.67;32.99;101201.22;4954407;28;19949;-84
2022/04/28 13:01:56;;;;;;;;;;;;;;;21.49;33.52;101190.19;4952521;29;19919;-83
2022/04/28 13:04:28;;;;;;;;;;;;;;;21.77;33.06;101203.47;4952883;28;19918;-85
2022/04/28 13:07:04;;;;;;;;;;;;;;;21.49;33.72;101196.53;4922276;29;20371;-83
2022/04/28 13:09:30;;;;;;;;;;;;;;;21.75;32.89;101200.13;4943052;29;19974;-84
2022/04/28 13:11:56;;;;;;;;;;;;;;;21.69;33.46;101196.38;4926491;29;19914;-82
2022/04/28 13:14:34;;;;;;;;;;;;;;;21.48;33.46;101196.72;4925864;28;19919;-82
2022/04/28 13:17:02;;;;;;;;;;;;;;;21.17;33.75;101192.06;4953021;29;20346;-84
2022/04/28 13:19:28;;;;;;;;;;;;;;;21.07;34.26;101198.81;4937022;29;19942;-83
2022/04/28 13:21:53;;;;;;;;;;;;;;;20.78;35.01;101194.72;4954591;28;20000;-83
2022/04/28 13:24:19;;;;;;;;;;;;;;;20.65;35.10;101194.78;4936248;29;20005;-83
2022/04/28 13:26:47;;;;;;;;;;;;;;;20.78;35.03;101194.72;4954235;28;19988;-84
2022/04/28 13:29:13;;;;;;;;;;;;;;;21.13;34.97;101190.81;4954570;28;20304;-83
2022/04/28 13:31:40;;;;;;;;;;;;;;;21.12;34.65;101187.25;4934589;29;19915;-90
2022/04/28 13:34:06;;;;;;;;;;;;;;;20.66;35.36;101185.53;4919123;29;20008;-84
2022/04/28 13:36:31;;;;;;;;;;;;;;;20.81;35.04;101187.97;4947091;28;20371;-88
2022/04/28 13:38:58;;;;;;;;;;;;;;;20.86;35.12;101190.91;4953815;29;19915;-84
2022/04/28 13:41:25;;;;;;;;;;;;;;;21.04;34.61;101190.22;4935832;29;19925;-85
2022/04/28 13:43:51;;;;;;;;;;;;;;;20.85;35.68;101183.78;4953126;29;19994;-85
2022/04/28 13:46:21;;;;;;;;;;;;;;;21.23;34.79;101183.78;4935722;29;19981;-85
2022/04/28 13:48:59;;;;;;;;;;;;;;;20.87;35.15;101187.97;4936721;29;19914;-86
2022/04/28 13:51:42;;;;;;;;;;;;;;;20.68;34.99;101194.34;4939750;29;19982;-85
2022/04/28 13:54:12;;;;;;;;;;;;;;;20.40;35.94;101192.69;4936791;29;19918;-89
2022/04/28 13:56:44;;;;;;;;;;;;;;;19.99;37.03;101188.34;4920815;29;19922;-86
2022/04/28 13:59:10;;;;;;;;;;;;;;;19.94;37.09;101199.03;4956427;29;19921;-83
2022/04/28 14:01:40;;;;;;;;;;;;;;;19.59;37.68;101199.19;4937029;29;20530;-84
2022/04/28 14:04:07;;;;;;;;;;;;;;;19.50;37.01;101202.31;4954230;29;19965;-84
2022/04/28 14:06:35;;;;;;;;;;;;;;;19.15;38.81;101206.00;4937635;29;19915;-85